createdAt,value
2022-10-07T00:03:34.706Z,101292.06
2022-10-07T00:09:36.486Z,101317.25
2022-10-07T00:21:55.182Z,101206.66
2022-10-07T00:27:57.056Z,101274.88
2022-10-07T00:34:05.585Z,101308.25
2022-10-07T00:40:07.786Z,101314.88
2022-10-07T00:46:37.098Z,101258.72
2022-10-07T00:52:43.369Z,101314.56
2022-10-07T00:58:48.142Z,101256.53
2022-10-07T01:04:51.772Z,101256.22
2022-10-07T01:11:14.200Z,101318.50
2022-10-07T01:17:34.698Z,101310.81
2022-10-07T01:23:42.693Z,101310.34
2022-10-07T01:30:04.647Z,101281.03
2022-10-07T01:36:14.662Z,101240.56
2022-10-07T01:42:17.723Z,101317.50
2022-10-07T01:48:21.195Z,101185.09
2022-10-07T01:54:28.588Z,101324.03
2022-10-07T02:00:31.418Z,101315.66
2022-10-07T02:06:59.412Z,101319.09
2022-10-07T02:13:27.027Z,101320.63
2022-10-07T02:19:36.229Z,101313.13
2022-10-07T02:25:47.294Z,101322.66
2022-10-07T02:31:51.721Z,101292.34
2022-10-07T02:38:03.189Z,101269.53
2022-10-07T02:44:22.256Z,101279.25
2022-10-07T02:50:27.646Z,101327.78
2022-10-07T03:03:11.357Z,101331.91
2022-10-07T03:09:21.905Z,101216.81
2022-10-07T03:15:25.853Z,101203.69
2022-10-07T03:21:28.203Z,101340.78
2022-10-07T03:27:30.221Z,101311.19
2022-10-07T03:33:32.135Z,101334.38
2022-10-07T03:39:33.936Z,101272.03
2022-10-07T03:45:37.543Z,101305.94
2022-10-07T03:51:42.402Z,101303.03
2022-10-07T03:57:59.679Z,101325.88
2022-10-07T04:04:02.297Z,101249.84
2022-10-07T04:10:04.399Z,101325.19
2022-10-07T04:16:08.457Z,101220.94
2022-10-07T04:22:10.349Z,101298.09
2022-10-07T04:28:18.656Z,101323.81
2022-10-07T04:34:23.608Z,101195.72
2022-10-07T04:46:51.194Z,101229.41
2022-10-07T04:52:53.976Z,101266.56
2022-10-07T04:58:56.475Z,101287.66
2022-10-07T05:11:23.543Z,101348.25
2022-10-07T05:17:26.138Z,101350.97
2022-10-07T05:49:08.781Z,101261.56
2022-10-07T06:01:41.704Z,101369.88
2022-10-07T06:14:04.140Z,101307.72
2022-10-07T06:39:59.356Z,101385.63
2022-10-07T07:18:30.381Z,101394.91
2022-10-07T12:16:22.445Z,101189.66
2022-10-07T13:15:59.623Z,101165.28
2022-10-07T14:12:52.266Z,101125.56
2022-10-07T14:19:07.026Z,101084.69
2022-10-07T14:25:22.267Z,101123.38
2022-10-07T14:31:45.824Z,101110.63
2022-10-07T14:37:48.806Z,101114.25
2022-10-07T14:43:52.112Z,101090.78
2022-10-07T14:50:00.884Z,101045.53
2022-10-07T14:56:02.895Z,101057.09
2022-10-07T15:08:21.705Z,101031.53
2022-10-07T15:14:23.868Z,101048.91
2022-10-07T15:20:26.576Z,101105.50
2022-10-07T15:26:28.943Z,101095.84
2022-10-07T15:32:30.893Z,101049.91
2022-10-07T15:38:32.684Z,101103.44
2022-10-07T15:44:34.579Z,101077.63
2022-10-07T15:50:36.574Z,101092.78
2022-10-07T15:56:39.528Z,101100.78
2022-10-07T16:02:44.008Z,101023.75
2022-10-07T16:08:46.098Z,101063.91
2022-10-07T16:21:09.933Z,101100.09
2022-10-07T16:27:11.748Z,101084.13
2022-10-07T16:33:13.501Z,101084.28
2022-10-07T16:39:18.978Z,101045.88
2022-10-07T16:45:21.266Z,101106.50
2022-10-07T16:51:33.358Z,101056.56
2022-10-07T16:57:37.407Z,101094.25
2022-10-07T17:03:45.371Z,101075.22
2022-10-07T17:09:47.180Z,101091.84
2022-10-07T17:15:52.698Z,101043.38
2022-10-07T17:21:56.003Z,101091.41
2022-10-07T17:27:57.865Z,101029.19
2022-10-07T17:34:00.092Z,101009.16
2022-10-07T17:40:01.891Z,101081.91
2022-10-07T17:46:05.252Z,101029.69
2022-10-07T17:52:09.091Z,101030.00
2022-10-07T17:58:10.806Z,101089.44
2022-10-07T18:04:17.116Z,101083.38
2022-10-07T18:10:21.823Z,101062.25
2022-10-07T18:16:23.917Z,100990.44
2022-10-07T18:22:25.852Z,101057.53
2022-10-07T18:28:27.668Z,101047.19
2022-10-07T18:34:29.475Z,100980.44
2022-10-07T18:40:31.329Z,101003.63
2022-10-07T18:46:33.309Z,101058.16
2022-10-07T18:52:35.069Z,101041.19
2022-10-07T18:58:39.156Z,101073.94
2022-10-07T19:04:40.968Z,101039.03
2022-10-07T19:10:43.184Z,101085.47
2022-10-07T19:16:49.249Z,101048.13
2022-10-07T19:22:51.284Z,101046.22
2022-10-07T19:28:54.553Z,101066.97
2022-10-07T19:34:56.330Z,101050.72
2022-10-07T19:40:58.059Z,101043.72
2022-10-07T19:47:01.489Z,101066.97
2022-10-07T19:53:05.139Z,101030.84
2022-10-07T19:59:09.214Z,101089.06
2022-10-07T20:05:10.908Z,100995.94
2022-10-07T20:11:13.363Z,101055.56
2022-10-07T20:17:15.158Z,101053.50
2022-10-07T20:23:16.952Z,101014.84
2022-10-07T20:29:24.087Z,101015.38
2022-10-07T20:35:31.741Z,101042.13
2022-10-07T20:41:53.861Z,101021.34
2022-10-07T20:47:59.609Z,101062.22
2022-10-07T20:54:03.550Z,101042.66
2022-10-07T21:00:09.452Z,101053.16
2022-10-07T21:06:11.220Z,101056.31
2022-10-07T21:12:16.014Z,101052.78
2022-10-07T21:18:19.197Z,101022.09
2022-10-07T21:24:20.879Z,101036.81
2022-10-07T21:30:22.694Z,100990.72
2022-10-07T21:36:24.557Z,101018.91
2022-10-07T21:42:26.339Z,101026.81
2022-10-07T21:48:31.612Z,100990.63
2022-10-07T21:54:33.349Z,101020.09
2022-10-07T22:00:36.172Z,100945.50
2022-10-07T22:06:56.331Z,100955.88
2022-10-07T22:12:58.068Z,100969.88
2022-10-07T22:18:59.840Z,101001.38
2022-10-07T22:25:01.547Z,100999.00
2022-10-07T22:31:05.689Z,100967.81
2022-10-07T22:37:07.477Z,100982.31
2022-10-07T22:43:09.648Z,100949.38
2022-10-07T22:49:12.037Z,100957.19
2022-10-07T22:55:13.806Z,100947.66
2022-10-07T23:01:16.796Z,100972.97
2022-10-07T23:07:18.845Z,100948.00
2022-10-07T23:13:20.549Z,100914.69
2022-10-07T23:19:22.305Z,100922.50
2022-10-07T23:25:25.159Z,100942.72
2022-10-07T23:31:28.929Z,100969.25
2022-10-07T23:37:30.697Z,100909.56
2022-10-07T23:43:33.689Z,100893.25
2022-10-07T23:49:35.444Z,100918.56
2022-10-07T23:55:37.203Z,100915.00
